sensor_id;sensor_type;location;lat;lon;timestamp;P1;durP1;ratioP1;P2;durP2;ratioP2
12587;SDS011;6359;51.450;7.346;2023-05-10T00:02:08;2.75;;;2.40;;
12587;SDS011;6359;51.450;7.346;2023-05-10T00:04:35;3.20;;;2.78;;
12587;SDS011;6359;51.450;7.346;2023-05-10T00:07:02;2.83;;;2.63;;
12587;SDS011;6359;51.450;7.346;2023-05-10T00:09:31;2.78;;;2.58;;
12587;SDS011;6359;51.450;7.346;2023-05-10T00:11:58;3.00;;;2.70;;
12587;SDS011;6359;51.450;7.346;2023-05-10T00:14:25;2.72;;;2.50;;
12587;SDS011;6359;51.450;7.346;2023-05-10T00:16:52;2.58;;;2.38;;
12587;SDS011;6359;51.450;7.346;2023-05-10T00:19:19;3.50;;;2.90;;
12587;SDS011;6359;51.450;7.346;2023-05-10T00:21:46;3.45;;;2.92;;
12587;SDS011;6359;51.450;7.346;2023-05-10T00:24:13;5.97;;;2.88;;
12587;SDS011;6359;51.450;7.346;2023-05-10T00:26:41;3.10;;;2.78;;
12587;SDS011;6359;51.450;7.346;2023-05-10T00:29:08;4.35;;;2.55;;
12587;SDS011;6359;51.450;7.346;2023-05-10T00:31:35;3.53;;;3.20;;
12587;SDS011;6359;51.450;7.346;2023-05-10T00:34:03;3.13;;;2.80;;
12587;SDS011;6359;51.450;7.346;2023-05-10T00:36:30;3.17;;;2.88;;
12587;SDS011;6359;51.450;7.346;2023-05-10T00:38:57;3.35;;;3.05;;
12587;SDS011;6359;51.450;7.346;2023-05-10T00:41:24;3.10;;;2.50;;
12587;SDS011;6359;51.450;7.346;2023-05-10T00:43:53;3.38;;;3.08;;
12587;SDS011;6359;51.450;7.346;2023-05-10T00:46:20;3.03;;;2.70;;
12587;SDS011;6359;51.450;7.346;2023-05-10T00:48:47;4.20;;;3.00;;
12587;SDS011;6359;51.450;7.346;2023-05-10T00:51:14;3.40;;;2.70;;
12587;SDS011;6359;51.450;7.346;2023-05-10T00:53:42;3.42;;;3.13;;
12587;SDS011;6359;51.450;7.346;2023-05-10T00:56:11;4.97;;;3.30;;
12587;SDS011;6359;51.450;7.346;2023-05-10T00:58:38;4.05;;;2.90;;
12587;SDS011;6359;51.450;7.346;2023-05-10T01:01:07;3.45;;;3.15;;
12587;SDS011;6359;51.450;7.346;2023-05-10T01:03:35;3.63;;;3.33;;
12587;SDS011;6359;51.450;7.346;2023-05-10T01:06:03;6.13;;;4.18;;
12587;SDS011;6359;51.450;7.346;2023-05-10T01:08:31;4.38;;;3.97;;
12587;SDS011;6359;51.450;7.346;2023-05-10T01:10:58;4.10;;;3.70;;
12587;SDS011;6359;51.450;7.346;2023-05-10T01:13:29;4.28;;;3.88;;
12587;SDS011;6359;51.450;7.346;2023-05-10T01:15:59;5.07;;;3.97;;
12587;SDS011;6359;51.450;7.346;2023-05-10T01:18:28;4.75;;;4.28;;
12587;SDS011;6359;51.450;7.346;2023-05-10T01:20:59;6.47;;;3.97;;
12587;SDS011;6359;51.450;7.346;2023-05-10T01:23:41;5.68;;;4.85;;
12587;SDS011;6359;51.450;7.346;2023-05-10T01:26:36;5.97;;;4.65;;
12587;SDS011;6359;51.450;7.346;2023-05-10T01:32:30;6.68;;;5.97;;
12587;SDS011;6359;51.450;7.346;2023-05-10T01:35:03;7.68;;;6.53;;
12587;SDS011;6359;51.450;7.346;2023-05-10T01:37:36;6.65;;;5.95;;
12587;SDS011;6359;51.450;7.346;2023-05-10T01:40:11;7.25;;;6.47;;
12587;SDS011;6359;51.450;7.346;2023-05-10T01:42:46;7.38;;;5.70;;
12587;SDS011;6359;51.450;7.346;2023-05-10T01:45:19;8.15;;;5.68;;
12587;SDS011;6359;51.450;7.346;2023-05-10T01:47:54;6.70;;;5.97;;
12587;SDS011;6359;51.450;7.346;2023-05-10T01:50:29;5.93;;;4.97;;
12587;SDS011;6359;51.450;7.346;2023-05-10T01:52:57;6.25;;;5.38;;
12587;SDS011;6359;51.450;7.346;2023-05-10T01:55:27;7.35;;;5.57;;
12587;SDS011;6359;51.450;7.346;2023-05-10T01:57:58;5.40;;;4.90;;
12587;SDS011;6359;51.450;7.346;2023-05-10T02:00:29;4.93;;;4.43;;
12587;SDS011;6359;51.450;7.346;2023-05-10T02:02:58;5.18;;;4.68;;
12587;SDS011;6359;51.450;7.346;2023-05-10T02:05:28;5.70;;;4.90;;
12587;SDS011;6359;51.450;7.346;2023-05-10T02:07:58;5.30;;;4.80;;
12587;SDS011;6359;51.450;7.346;2023-05-10T02:10:27;7.63;;;5.20;;
12587;SDS011;6359;51.450;7.346;2023-05-10T02:12:55;5.25;;;4.75;;
12587;SDS011;6359;51.450;7.346;2023-05-10T02:15:25;6.43;;;5.57;;
12587;SDS011;6359;51.450;7.346;2023-05-10T02:17:54;6.75;;;6.05;;
12587;SDS011;6359;51.450;7.346;2023-05-10T02:20:24;6.95;;;5.40;;
12587;SDS011;6359;51.450;7.346;2023-05-10T02:22:53;6.30;;;5.47;;
12587;SDS011;6359;51.450;7.346;2023-05-10T02:25:22;6.70;;;5.97;;
12587;SDS011;6359;51.450;7.346;2023-05-10T02:27:50;7.68;;;6.18;;
12587;SDS011;6359;51.450;7.346;2023-05-10T02:30:20;8.02;;;6.15;;
12587;SDS011;6359;51.450;7.346;2023-05-10T02:32:48;8.35;;;6.85;;
12587;SDS011;6359;51.450;7.346;2023-05-10T02:35:16;7.97;;;7.20;;
12587;SDS011;6359;51.450;7.346;2023-05-10T02:37:45;7.28;;;6.47;;
12587;SDS011;6359;51.450;7.346;2023-05-10T02:40:14;12.15;;;7.57;;
12587;SDS011;6359;51.450;7.346;2023-05-10T02:42:43;8.98;;;7.00;;
12587;SDS011;6359;51.450;7.346;2023-05-10T02:45:12;11.40;;;7.63;;
12587;SDS011;6359;51.450;7.346;2023-05-10T02:47:43;13.82;;;8.05;;
12587;SDS011;6359;51.450;7.346;2023-05-10T02:50:10;10.40;;;7.63;;
12587;SDS011;6359;51.450;7.346;2023-05-10T02:52:39;9.15;;;7.65;;
12587;SDS011;6359;51.450;7.346;2023-05-10T02:55:09;10.50;;;8.38;;
12587;SDS011;6359;51.450;7.346;2023-05-10T02:57:40;10.00;;;8.25;;
12587;SDS011;6359;51.450;7.346;2023-05-10T03:00:12;9.77;;;7.50;;
12587;SDS011;6359;51.450;7.346;2023-05-10T03:02:39;7.95;;;7.00;;
12587;SDS011;6359;51.450;7.346;2023-05-10T03:05:06;10.32;;;7.78;;
12587;SDS011;6359;51.450;7.346;2023-05-10T03:07:34;10.45;;;8.10;;
12587;SDS011;6359;51.450;7.346;2023-05-10T03:10:01;10.52;;;8.32;;
12587;SDS011;6359;51.450;7.346;2023-05-10T03:12:33;9.23;;;7.55;;
12587;SDS011;6359;51.450;7.346;2023-05-10T03:15:11;11.63;;;8.13;;
12587;SDS011;6359;51.450;7.346;2023-05-10T03:17:45;9.82;;;7.85;;
12587;SDS011;6359;51.450;7.346;2023-05-10T03:20:16;10.18;;;7.65;;
12587;SDS011;6359;51.450;7.346;2023-05-10T03:22:51;11.48;;;7.78;;
12587;SDS011;6359;51.450;7.346;2023-05-10T03:25:21;9.82;;;7.72;;
12587;SDS011;6359;51.450;7.346;2023-05-10T03:27:51;9.88;;;7.85;;
12587;SDS011;6359;51.450;7.346;2023-05-10T03:30:19;11.65;;;8.73;;
12587;SDS011;6359;51.450;7.346;2023-05-10T03:32:46;12.43;;;8.20;;
12587;SDS011;6359;51.450;7.346;2023-05-10T03:35:13;11.05;;;8.43;;
12587;SDS011;6359;51.450;7.346;2023-05-10T03:37:40;17.42;;;8.50;;
12587;SDS011;6359;51.450;7.346;2023-05-10T03:40:07;11.90;;;8.68;;
12587;SDS011;6359;51.450;7.346;2023-05-10T03:42:35;9.82;;;8.25;;
12587;SDS011;6359;51.450;7.346;2023-05-10T03:45:03;14.52;;;8.73;;
12587;SDS011;6359;51.450;7.346;2023-05-10T03:47:30;13.60;;;9.20;;
12587;SDS011;6359;51.450;7.346;2023-05-10T03:49:57;12.82;;;9.20;;
12587;SDS011;6359;51.450;7.346;2023-05-10T03:52:24;14.73;;;9.70;;
12587;SDS011;6359;51.450;7.346;2023-05-10T03:54:51;15.48;;;9.07;;
12587;SDS011;6359;51.450;7.346;2023-05-10T03:57:18;12.35;;;8.43;;
12587;SDS011;6359;51.450;7.346;2023-05-10T03:59:45;13.93;;;9.32;;
12587;SDS011;6359;51.450;7.346;2023-05-10T04:02:13;13.35;;;9.27;;
12587;SDS011;6359;51.450;7.346;2023-05-10T04:04:40;13.75;;;11.05;;
12587;SDS011;6359;51.450;7.346;2023-05-10T04:07:07;16.48;;;11.25;;
12587;SDS011;6359;51.450;7.346;2023-05-10T04:09:35;14.48;;;10.65;;
12587;SDS011;6359;51.450;7.346;2023-05-10T04:12:02;17.50;;;11.88;;
12587;SDS011;6359;51.450;7.346;2023-05-10T04:14:29;17.63;;;11.25;;
12587;SDS011;6359;51.450;7.346;2023-05-10T04:16:56;20.02;;;11.60;;
12587;SDS011;6359;51.450;7.346;2023-05-10T04:19:28;18.77;;;11.45;;
12587;SDS011;6359;51.450;7.346;2023-05-10T04:21:55;20.27;;;12.52;;
12587;SDS011;6359;51.450;7.346;2023-05-10T04:24:22;21.05;;;12.88;;
12587;SDS011;6359;51.450;7.346;2023-05-10T04:26:49;23.33;;;13.73;;
12587;SDS011;6359;51.450;7.346;2023-05-10T04:29:16;22.85;;;14.40;;
12587;SDS011;6359;51.450;7.346;2023-05-10T04:31:43;25.08;;;14.18;;
12587;SDS011;6359;51.450;7.346;2023-05-10T04:34:10;19.63;;;14.43;;
12587;SDS011;6359;51.450;7.346;2023-05-10T04:36:39;23.40;;;14.25;;
12587;SDS011;6359;51.450;7.346;2023-05-10T04:39:05;22.15;;;14.63;;
12587;SDS011;6359;51.450;7.346;2023-05-10T04:41:34;21.27;;;13.73;;
12587;SDS011;6359;51.450;7.346;2023-05-10T04:44:01;18.67;;;13.15;;
12587;SDS011;6359;51.450;7.346;2023-05-10T04:46:28;19.17;;;13.20;;
12587;SDS011;6359;51.450;7.346;2023-05-10T04:48:55;18.42;;;13.13;;
12587;SDS011;6359;51.450;7.346;2023-05-10T04:51:22;18.25;;;12.23;;
12587;SDS011;6359;51.450;7.346;2023-05-10T04:53:51;25.73;;;13.27;;
12587;SDS011;6359;51.450;7.346;2023-05-10T04:56:18;15.52;;;11.95;;
12587;SDS011;6359;51.450;7.346;2023-05-10T04:58:45;22.20;;;13.65;;
12587;SDS011;6359;51.450;7.346;2023-05-10T05:01:12;22.42;;;12.15;;
12587;SDS011;6359;51.450;7.346;2023-05-10T05:03:38;21.17;;;14.13;;
12587;SDS011;6359;51.450;7.346;2023-05-10T05:06:06;20.13;;;14.10;;
12587;SDS011;6359;51.450;7.346;2023-05-10T05:08:33;22.23;;;14.70;;
12587;SDS011;6359;51.450;7.346;2023-05-10T05:11:01;28.45;;;14.85;;
12587;SDS011;6359;51.450;7.346;2023-05-10T05:13:28;22.13;;;16.25;;
12587;SDS011;6359;51.450;7.346;2023-05-10T05:15:55;22.88;;;15.88;;
12587;SDS011;6359;51.450;7.346;2023-05-10T05:18:22;24.25;;;15.93;;
12587;SDS011;6359;51.450;7.346;2023-05-10T05:20:49;23.80;;;15.70;;
12587;SDS011;6359;51.450;7.346;2023-05-10T05:23:16;25.33;;;17.13;;
12587;SDS011;6359;51.450;7.346;2023-05-10T05:25:43;28.75;;;18.40;;
12587;SDS011;6359;51.450;7.346;2023-05-10T05:28:12;30.75;;;18.17;;
12587;SDS011;6359;51.450;7.346;2023-05-10T05:30:39;29.23;;;17.88;;
12587;SDS011;6359;51.450;7.346;2023-05-10T05:33:06;30.08;;;17.70;;
12587;SDS011;6359;51.450;7.346;2023-05-10T05:35:33;29.42;;;17.83;;
12587;SDS011;6359;51.450;7.346;2023-05-10T05:38:00;25.95;;;18.10;;
12587;SDS011;6359;51.450;7.346;2023-05-10T05:40:27;30.20;;;18.55;;
12587;SDS011;6359;51.450;7.346;2023-05-10T05:42:54;32.40;;;20.00;;
12587;SDS011;6359;51.450;7.346;2023-05-10T05:45:22;33.50;;;20.15;;
12587;SDS011;6359;51.450;7.346;2023-05-10T05:47:49;29.58;;;19.83;;
12587;SDS011;6359;51.450;7.346;2023-05-10T05:50:16;31.92;;;20.80;;
12587;SDS011;6359;51.450;7.346;2023-05-10T05:52:43;31.65;;;19.92;;
12587;SDS011;6359;51.450;7.346;2023-05-10T05:55:10;33.05;;;22.13;;
12587;SDS011;6359;51.450;7.346;2023-05-10T05:57:37;32.85;;;20.70;;
12587;SDS011;6359;51.450;7.346;2023-05-10T06:00:05;32.92;;;19.40;;
12587;SDS011;6359;51.450;7.346;2023-05-10T06:02:35;28.33;;;20.00;;
12587;SDS011;6359;51.450;7.346;2023-05-10T06:05:02;33.05;;;19.70;;
12587;SDS011;6359;51.450;7.346;2023-05-10T06:07:29;27.85;;;19.60;;
12587;SDS011;6359;51.450;7.346;2023-05-10T06:09:56;31.27;;;20.48;;
12587;SDS011;6359;51.450;7.346;2023-05-10T06:12:23;34.30;;;19.70;;
12587;SDS011;6359;51.450;7.346;2023-05-10T06:14:50;37.63;;;20.63;;
12587;SDS011;6359;51.450;7.346;2023-05-10T06:17:17;32.70;;;21.42;;
12587;SDS011;6359;51.450;7.346;2023-05-10T06:19:45;39.70;;;22.42;;
12587;SDS011;6359;51.450;7.346;2023-05-10T06:22:12;31.77;;;21.70;;
12587;SDS011;6359;51.450;7.346;2023-05-10T06:24:39;32.28;;;20.98;;
12587;SDS011;6359;51.450;7.346;2023-05-10T06:27:06;34.60;;;21.98;;
12587;SDS011;6359;51.450;7.346;2023-05-10T06:29:33;30.65;;;20.58;;
12587;SDS011;6359;51.450;7.346;2023-05-10T06:32:00;30.13;;;21.30;;
12587;SDS011;6359;51.450;7.346;2023-05-10T06:34:27;31.60;;;21.85;;
12587;SDS011;6359;51.450;7.346;2023-05-10T06:36:56;33.70;;;22.50;;
12587;SDS011;6359;51.450;7.346;2023-05-10T06:39:23;29.65;;;21.05;;
12587;SDS011;6359;51.450;7.346;2023-05-10T06:41:50;33.72;;;23.35;;
12587;SDS011;6359;51.450;7.346;2023-05-10T06:44:17;35.80;;;22.60;;
12587;SDS011;6359;51.450;7.346;2023-05-10T06:46:44;38.83;;;23.02;;
12587;SDS011;6359;51.450;7.346;2023-05-10T06:49:11;38.70;;;24.90;;
12587;SDS011;6359;51.450;7.346;2023-05-10T06:51:38;31.38;;;22.20;;
12587;SDS011;6359;51.450;7.346;2023-05-10T06:54:06;37.13;;;23.05;;
12587;SDS011;6359;51.450;7.346;2023-05-10T06:56:33;31.48;;;22.27;;
12587;SDS011;6359;51.450;7.346;2023-05-10T06:59:00;29.92;;;21.92;;
12587;SDS011;6359;51.450;7.346;2023-05-10T07:01:27;29.55;;;20.10;;
12587;SDS011;6359;51.450;7.346;2023-05-10T07:03:54;27.55;;;19.58;;
12587;SDS011;6359;51.450;7.346;2023-05-10T07:06:21;25.92;;;19.05;;
12587;SDS011;6359;51.450;7.346;2023-05-10T07:08:48;28.85;;;19.30;;
12587;SDS011;6359;51.450;7.346;2023-05-10T07:11:16;27.83;;;18.88;;
12587;SDS011;6359;51.450;7.346;2023-05-10T07:13:43;24.45;;;17.58;;
12587;SDS011;6359;51.450;7.346;2023-05-10T07:16:11;25.80;;;18.40;;
12587;SDS011;6359;51.450;7.346;2023-05-10T07:18:38;25.23;;;18.13;;
12587;SDS011;6359;51.450;7.346;2023-05-10T07:21:05;24.90;;;17.92;;
12587;SDS011;6359;51.450;7.346;2023-05-10T07:23:32;23.83;;;18.33;;
12587;SDS011;6359;51.450;7.346;2023-05-10T07:25:59;24.00;;;17.92;;
12587;SDS011;6359;51.450;7.346;2023-05-10T07:28:28;24.23;;;17.92;;
12587;SDS011;6359;51.450;7.346;2023-05-10T07:30:55;29.13;;;18.77;;
12587;SDS011;6359;51.450;7.346;2023-05-10T07:33:22;29.67;;;16.90;;
12587;SDS011;6359;51.450;7.346;2023-05-10T07:35:49;18.30;;;14.75;;
12587;SDS011;6359;51.450;7.346;2023-05-10T07:38:16;23.17;;;15.65;;
12587;SDS011;6359;51.450;7.346;2023-05-10T07:40:43;24.35;;;14.95;;
12587;SDS011;6359;51.450;7.346;2023-05-10T07:43:10;23.58;;;16.40;;
12587;SDS011;6359;51.450;7.346;2023-05-10T07:45:39;23.00;;;16.58;;
12587;SDS011;6359;51.450;7.346;2023-05-10T07:48:06;24.17;;;17.05;;
12587;SDS011;6359;51.450;7.346;2023-05-10T07:50:33;23.65;;;16.67;;
12587;SDS011;6359;51.450;7.346;2023-05-10T07:53:00;23.45;;;17.85;;
12587;SDS011;6359;51.450;7.346;2023-05-10T07:55:27;28.67;;;18.52;;
12587;SDS011;6359;51.450;7.346;2023-05-10T07:57:54;24.60;;;16.77;;
12587;SDS011;6359;51.450;7.346;2023-05-10T08:00:21;25.88;;;18.73;;
12587;SDS011;6359;51.450;7.346;2023-05-10T08:02:49;24.40;;;18.35;;
12587;SDS011;6359;51.450;7.346;2023-05-10T08:05:16;23.95;;;18.10;;
12587;SDS011;6359;51.450;7.346;2023-05-10T08:07:43;30.15;;;18.90;;
12587;SDS011;6359;51.450;7.346;2023-05-10T08:10:10;24.80;;;18.90;;
12587;SDS011;6359;51.450;7.346;2023-05-10T08:12:37;25.05;;;19.80;;
12587;SDS011;6359;51.450;7.346;2023-05-10T08:15:05;22.95;;;18.58;;
12587;SDS011;6359;51.450;7.346;2023-05-10T08:17:32;29.75;;;20.23;;
12587;SDS011;6359;51.450;7.346;2023-05-10T08:20:00;23.60;;;18.05;;
12587;SDS011;6359;51.450;7.346;2023-05-10T08:22:27;26.30;;;17.08;;
12587;SDS011;6359;51.450;7.346;2023-05-10T08:24:54;28.00;;;17.42;;
12587;SDS011;6359;51.450;7.346;2023-05-10T08:27:21;25.60;;;15.48;;
12587;SDS011;6359;51.450;7.346;2023-05-10T08:29:48;21.17;;;14.73;;
12587;SDS011;6359;51.450;7.346;2023-05-10T08:32:15;17.88;;;13.57;;
12587;SDS011;6359;51.450;7.346;2023-05-10T08:34:42;20.60;;;13.15;;
12587;SDS011;6359;51.450;7.346;2023-05-10T08:37:10;20.23;;;13.45;;
12587;SDS011;6359;51.450;7.346;2023-05-10T08:39:38;18.08;;;12.45;;
12587;SDS011;6359;51.450;7.346;2023-05-10T08:42:05;21.90;;;12.30;;
12587;SDS011;6359;51.450;7.346;2023-05-10T08:44:34;25.55;;;14.02;;
12587;SDS011;6359;51.450;7.346;2023-05-10T08:47:02;22.95;;;13.25;;
12587;SDS011;6359;51.450;7.346;2023-05-10T08:49:31;20.02;;;12.70;;
12587;SDS011;6359;51.450;7.346;2023-05-10T08:51:59;20.35;;;13.68;;
12587;SDS011;6359;51.450;7.346;2023-05-10T08:54:32;21.08;;;12.82;;
12587;SDS011;6359;51.450;7.346;2023-05-10T08:56:59;19.80;;;13.18;;
12587;SDS011;6359;51.450;7.346;2023-05-10T08:59:27;19.35;;;12.75;;
12587;SDS011;6359;51.450;7.346;2023-05-10T09:01:55;18.38;;;12.68;;
12587;SDS011;6359;51.450;7.346;2023-05-10T09:04:24;19.83;;;12.93;;
12587;SDS011;6359;51.450;7.346;2023-05-10T09:06:51;19.88;;;13.32;;
12587;SDS011;6359;51.450;7.346;2023-05-10T09:09:18;19.45;;;11.65;;
12587;SDS011;6359;51.450;7.346;2023-05-10T09:11:48;17.65;;;12.32;;
12587;SDS011;6359;51.450;7.346;2023-05-10T09:14:15;15.20;;;12.07;;
12587;SDS011;6359;51.450;7.346;2023-05-10T09:16:42;16.27;;;10.82;;
12587;SDS011;6359;51.450;7.346;2023-05-10T09:19:09;15.88;;;11.18;;
12587;SDS011;6359;51.450;7.346;2023-05-10T09:21:36;15.32;;;10.35;;
12587;SDS011;6359;51.450;7.346;2023-05-10T09:24:04;14.80;;;8.88;;
12587;SDS011;6359;51.450;7.346;2023-05-10T09:26:32;8.52;;;6.82;;
12587;SDS011;6359;51.450;7.346;2023-05-10T09:29:02;12.45;;;7.20;;
12587;SDS011;6359;51.450;7.346;2023-05-10T09:31:44;10.32;;;7.38;;
12587;SDS011;6359;51.450;7.346;2023-05-10T09:34:15;11.60;;;6.80;;
12587;SDS011;6359;51.450;7.346;2023-05-10T09:36:52;8.68;;;6.05;;
12587;SDS011;6359;51.450;7.346;2023-05-10T09:39:21;10.18;;;6.93;;
12587;SDS011;6359;51.450;7.346;2023-05-10T09:41:57;9.68;;;7.60;;
12587;SDS011;6359;51.450;7.346;2023-05-10T09:44:26;8.43;;;6.60;;
12587;SDS011;6359;51.450;7.346;2023-05-10T09:46:53;8.98;;;6.65;;
12587;SDS011;6359;51.450;7.346;2023-05-10T09:49:20;9.23;;;7.32;;
12587;SDS011;6359;51.450;7.346;2023-05-10T09:51:47;10.32;;;6.85;;
12587;SDS011;6359;51.450;7.346;2023-05-10T09:54:23;12.82;;;8.02;;
12587;SDS011;6359;51.450;7.346;2023-05-10T09:56:50;8.50;;;6.55;;
12587;SDS011;6359;51.450;7.346;2023-05-10T09:59:17;7.90;;;6.50;;
12587;SDS011;6359;51.450;7.346;2023-05-10T10:01:50;12.05;;;7.30;;
12587;SDS011;6359;51.450;7.346;2023-05-10T10:04:18;10.93;;;7.10;;
12587;SDS011;6359;51.450;7.346;2023-05-10T10:06:46;10.68;;;6.82;;
12587;SDS011;6359;51.450;7.346;2023-05-10T10:09:24;9.57;;;6.97;;
12587;SDS011;6359;51.450;7.346;2023-05-10T10:11:51;9.32;;;6.50;;
12587;SDS011;6359;51.450;7.346;2023-05-10T10:14:20;10.95;;;6.32;;
12587;SDS011;6359;51.450;7.346;2023-05-10T10:16:50;11.02;;;7.47;;
12587;SDS011;6359;51.450;7.346;2023-05-10T10:19:18;13.05;;;8.35;;
12587;SDS011;6359;51.450;7.346;2023-05-10T10:21:46;14.02;;;8.00;;
12587;SDS011;6359;51.450;7.346;2023-05-10T10:24:13;12.38;;;7.95;;
12587;SDS011;6359;51.450;7.346;2023-05-10T10:26:41;14.10;;;9.10;;
12587;SDS011;6359;51.450;7.346;2023-05-10T10:29:11;14.98;;;8.70;;
12587;SDS011;6359;51.450;7.346;2023-05-10T10:31:48;10.80;;;8.18;;
12587;SDS011;6359;51.450;7.346;2023-05-10T10:34:25;12.75;;;8.93;;
12587;SDS011;6359;51.450;7.346;2023-05-10T10:36:54;15.27;;;10.40;;
12587;SDS011;6359;51.450;7.346;2023-05-10T10:39:22;18.98;;;12.30;;
12587;SDS011;6359;51.450;7.346;2023-05-10T10:41:51;19.73;;;12.90;;
12587;SDS011;6359;51.450;7.346;2023-05-10T10:44:27;25.05;;;15.73;;
12587;SDS011;6359;51.450;7.346;2023-05-10T10:47:03;22.83;;;15.85;;
12587;SDS011;6359;51.450;7.346;2023-05-10T10:49:37;23.52;;;15.18;;
12587;SDS011;6359;51.450;7.346;2023-05-10T10:52:22;25.00;;;15.50;;
12587;SDS011;6359;51.450;7.346;2023-05-10T10:54:54;23.50;;;14.00;;
12587;SDS011;6359;51.450;7.346;2023-05-10T10:57:25;17.40;;;11.20;;
12587;SDS011;6359;51.450;7.346;2023-05-10T11:02:49;14.85;;;10.55;;
12587;SDS011;6359;51.450;7.346;2023-05-10T11:05:24;15.68;;;10.38;;
12587;SDS011;6359;51.450;7.346;2023-05-10T11:08:13;19.55;;;11.55;;
12587;SDS011;6359;51.450;7.346;2023-05-10T11:10:49;17.42;;;10.73;;
12587;SDS011;6359;51.450;7.346;2023-05-10T11:13:26;15.65;;;9.77;;
12587;SDS011;6359;51.450;7.346;2023-05-10T11:15:55;13.30;;;9.90;;
12587;SDS011;6359;51.450;7.346;2023-05-10T11:18:25;17.08;;;8.57;;
12587;SDS011;6359;51.450;7.346;2023-05-10T11:20:58;13.93;;;10.30;;
12587;SDS011;6359;51.450;7.346;2023-05-10T11:23:30;13.40;;;9.00;;
12587;SDS011;6359;51.450;7.346;2023-05-10T11:25:58;12.18;;;7.68;;
12587;SDS011;6359;51.450;7.346;2023-05-10T11:28:26;15.88;;;9.07;;
12587;SDS011;6359;51.450;7.346;2023-05-10T11:30:53;12.30;;;8.60;;
12587;SDS011;6359;51.450;7.346;2023-05-10T11:33:21;10.73;;;8.07;;
12587;SDS011;6359;51.450;7.346;2023-05-10T11:35:49;13.63;;;10.73;;
12587;SDS011;6359;51.450;7.346;2023-05-10T11:38:16;14.60;;;11.00;;
12587;SDS011;6359;51.450;7.346;2023-05-10T11:40:43;13.93;;;9.23;;
12587;SDS011;6359;51.450;7.346;2023-05-10T11:43:10;12.40;;;9.60;;
12587;SDS011;6359;51.450;7.346;2023-05-10T11:45:37;13.20;;;9.93;;
12587;SDS011;6359;51.450;7.346;2023-05-10T11:48:06;13.18;;;11.00;;
12587;SDS011;6359;51.450;7.346;2023-05-10T11:50:33;15.57;;;11.02;;
12587;SDS011;6359;51.450;7.346;2023-05-10T11:53:02;17.23;;;10.68;;
12587;SDS011;6359;51.450;7.346;2023-05-10T11:55:29;14.02;;;9.90;;
12587;SDS011;6359;51.450;7.346;2023-05-10T11:58:00;14.57;;;10.30;;
12587;SDS011;6359;51.450;7.346;2023-05-10T12:00:28;12.88;;;9.85;;
12587;SDS011;6359;51.450;7.346;2023-05-10T12:02:56;14.07;;;8.93;;
12587;SDS011;6359;51.450;7.346;2023-05-10T12:05:23;11.60;;;8.85;;
12587;SDS011;6359;51.450;7.346;2023-05-10T12:07:51;14.40;;;8.73;;
12587;SDS011;6359;51.450;7.346;2023-05-10T12:10:24;12.55;;;8.35;;
12587;SDS011;6359;51.450;7.346;2023-05-10T12:12:52;13.82;;;8.73;;
12587;SDS011;6359;51.450;7.346;2023-05-10T12:15:19;15.07;;;8.85;;
12587;SDS011;6359;51.450;7.346;2023-05-10T12:17:47;13.75;;;9.60;;
12587;SDS011;6359;51.450;7.346;2023-05-10T12:20:15;10.32;;;7.72;;
12587;SDS011;6359;51.450;7.346;2023-05-10T12:22:44;12.13;;;8.60;;
12587;SDS011;6359;51.450;7.346;2023-05-10T12:25:12;16.83;;;9.27;;
12587;SDS011;6359;51.450;7.346;2023-05-10T12:27:40;11.88;;;8.57;;
12587;SDS011;6359;51.450;7.346;2023-05-10T12:30:13;14.73;;;8.60;;
12587;SDS011;6359;51.450;7.346;2023-05-10T12:32:45;12.30;;;7.95;;
12587;SDS011;6359;51.450;7.346;2023-05-10T12:35:12;12.00;;;8.60;;
12587;SDS011;6359;51.450;7.346;2023-05-10T12:37:40;12.43;;;9.35;;
12587;SDS011;6359;51.450;7.346;2023-05-10T12:40:08;9.40;;;7.05;;
12587;SDS011;6359;51.450;7.346;2023-05-10T12:42:37;10.23;;;8.70;;
12587;SDS011;6359;51.450;7.346;2023-05-10T12:45:07;10.48;;;7.63;;
12587;SDS011;6359;51.450;7.346;2023-05-10T12:47:35;9.40;;;7.25;;
12587;SDS011;6359;51.450;7.346;2023-05-10T12:50:02;11.15;;;7.50;;
12587;SDS011;6359;51.450;7.346;2023-05-10T12:52:30;9.18;;;7.45;;
12587;SDS011;6359;51.450;7.346;2023-05-10T12:54:58;10.20;;;7.68;;
12587;SDS011;6359;51.450;7.346;2023-05-10T12:57:25;8.38;;;7.13;;
12587;SDS011;6359;51.450;7.346;2023-05-10T12:59:53;9.13;;;7.32;;
12587;SDS011;6359;51.450;7.346;2023-05-10T13:02:22;8.52;;;6.43;;
12587;SDS011;6359;51.450;7.346;2023-05-10T13:04:49;9.88;;;6.93;;
12587;SDS011;6359;51.450;7.346;2023-05-10T13:07:16;9.77;;;6.80;;
12587;SDS011;6359;51.450;7.346;2023-05-10T13:09:43;11.90;;;6.80;;
12587;SDS011;6359;51.450;7.346;2023-05-10T13:12:10;8.35;;;6.65;;
12587;SDS011;6359;51.450;7.346;2023-05-10T13:14:37;8.57;;;6.93;;
12587;SDS011;6359;51.450;7.346;2023-05-10T13:17:05;9.85;;;7.60;;
12587;SDS011;6359;51.450;7.346;2023-05-10T13:19:34;11.82;;;7.20;;
12587;SDS011;6359;51.450;7.346;2023-05-10T13:22:02;8.18;;;7.30;;
12587;SDS011;6359;51.450;7.346;2023-05-10T13:24:30;12.13;;;7.88;;
12587;SDS011;6359;51.450;7.346;2023-05-10T13:26:57;10.85;;;8.35;;
12587;SDS011;6359;51.450;7.346;2023-05-10T13:29:24;11.65;;;8.30;;
12587;SDS011;6359;51.450;7.346;2023-05-10T13:31:51;11.00;;;8.35;;
12587;SDS011;6359;51.450;7.346;2023-05-10T13:34:18;12.05;;;7.97;;
12587;SDS011;6359;51.450;7.346;2023-05-10T13:36:47;10.27;;;7.43;;
12587;SDS011;6359;51.450;7.346;2023-05-10T13:39:14;10.27;;;8.27;;
12587;SDS011;6359;51.450;7.346;2023-05-10T13:41:41;10.95;;;8.27;;
12587;SDS011;6359;51.450;7.346;2023-05-10T13:44:08;12.35;;;7.85;;
12587;SDS011;6359;51.450;7.346;2023-05-10T13:46:37;9.00;;;7.53;;
12587;SDS011;6359;51.450;7.346;2023-05-10T13:49:04;9.90;;;6.70;;
12587;SDS011;6359;51.450;7.346;2023-05-10T13:51:32;8.00;;;5.85;;
12587;SDS011;6359;51.450;7.346;2023-05-10T13:54:02;6.20;;;5.30;;
12587;SDS011;6359;51.450;7.346;2023-05-10T13:56:29;8.88;;;5.18;;
12587;SDS011;6359;51.450;7.346;2023-05-10T13:58:56;5.70;;;5.13;;
12587;SDS011;6359;51.450;7.346;2023-05-10T14:01:23;7.57;;;5.50;;
12587;SDS011;6359;51.450;7.346;2023-05-10T14:03:50;8.52;;;5.40;;
12587;SDS011;6359;51.450;7.346;2023-05-10T14:06:17;7.00;;;4.93;;
12587;SDS011;6359;51.450;7.346;2023-05-10T14:08:44;10.52;;;5.28;;
12587;SDS011;6359;51.450;7.346;2023-05-10T14:11:12;4.95;;;4.22;;
12587;SDS011;6359;51.450;7.346;2023-05-10T14:13:39;6.40;;;5.10;;
12587;SDS011;6359;51.450;7.346;2023-05-10T14:16:06;6.65;;;3.78;;
12587;SDS011;6359;51.450;7.346;2023-05-10T14:18:33;5.50;;;3.67;;
12587;SDS011;6359;51.450;7.346;2023-05-10T14:21:01;5.53;;;3.95;;
12587;SDS011;6359;51.450;7.346;2023-05-10T14:23:28;4.70;;;3.70;;
12587;SDS011;6359;51.450;7.346;2023-05-10T14:25:56;3.85;;;3.42;;
12587;SDS011;6359;51.450;7.346;2023-05-10T14:28:24;3.13;;;2.70;;
12587;SDS011;6359;51.450;7.346;2023-05-10T14:30:51;3.70;;;3.00;;
12587;SDS011;6359;51.450;7.346;2023-05-10T14:33:17;4.80;;;2.63;;
12587;SDS011;6359;51.450;7.346;2023-05-10T14:35:45;2.35;;;2.13;;
12587;SDS011;6359;51.450;7.346;2023-05-10T14:38:12;3.38;;;2.67;;
12587;SDS011;6359;51.450;7.346;2023-05-10T14:40:39;3.30;;;3.00;;
12587;SDS011;6359;51.450;7.346;2023-05-10T14:43:06;3.03;;;2.60;;
12587;SDS011;6359;51.450;7.346;2023-05-10T14:45:34;3.80;;;2.60;;
12587;SDS011;6359;51.450;7.346;2023-05-10T14:48:01;3.08;;;2.75;;
12587;SDS011;6359;51.450;7.346;2023-05-10T14:50:29;5.40;;;2.92;;
12587;SDS011;6359;51.450;7.346;2023-05-10T14:52:56;3.78;;;3.22;;
12587;SDS011;6359;51.450;7.346;2023-05-10T14:55:23;3.65;;;3.13;;
12587;SDS011;6359;51.450;7.346;2023-05-10T14:57:50;4.70;;;3.55;;
12587;SDS011;6359;51.450;7.346;2023-05-10T15:00:17;3.92;;;3.38;;